createdAt,value
2019-01-22T00:01:19.786Z,43.97
2019-01-22T00:03:49.282Z,47.97
2019-01-22T00:06:19.090Z,41.07
2019-01-22T00:08:48.590Z,42.87
2019-01-22T00:11:18.116Z,40.57
2019-01-22T00:13:47.602Z,40.70
2019-01-22T00:16:17.131Z,40.43
2019-01-22T00:18:46.640Z,47.23
2019-01-22T00:21:16.099Z,43.43
2019-01-22T00:23:45.610Z,43.73
2019-01-22T00:26:15.122Z,38.27
2019-01-22T00:28:44.648Z,39.37
2019-01-22T00:31:14.121Z,39.50
2019-01-22T00:33:43.599Z,39.67
2019-01-22T00:36:13.199Z,38.73
2019-01-22T00:38:42.681Z,40.43
2019-01-22T00:41:12.162Z,36.93
2019-01-22T00:43:41.673Z,39.20
2019-01-22T00:46:11.670Z,42.13
2019-01-22T00:48:41.159Z,38.60
2019-01-22T00:51:10.661Z,41.87
2019-01-22T00:53:40.106Z,39.30
2019-01-22T00:56:09.755Z,40.13
2019-01-22T00:58:39.638Z,38.80
2019-01-22T01:01:09.189Z,40.77
2019-01-22T01:03:38.702Z,45.90
2019-01-22T01:06:08.228Z,40.33
2019-01-22T01:08:37.732Z,40.33
2019-01-22T01:11:07.282Z,40.50
2019-01-22T01:13:36.773Z,43.70
2019-01-22T01:16:06.389Z,43.90
2019-01-22T01:18:35.864Z,46.80
2019-01-22T01:21:05.450Z,52.03
2019-01-22T01:23:34.963Z,44.57
2019-01-22T01:26:04.543Z,47.03
2019-01-22T01:28:34.038Z,45.13
2019-01-22T01:31:03.802Z,45.53
2019-01-22T01:33:33.299Z,46.03
2019-01-22T01:36:02.771Z,45.80
2019-01-22T01:38:32.779Z,43.10
2019-01-22T01:41:02.279Z,42.73
2019-01-22T01:43:31.874Z,40.00
2019-01-22T01:46:01.409Z,42.27
2019-01-22T01:48:30.890Z,45.27
2019-01-22T01:51:00.409Z,41.43
2019-01-22T01:53:29.893Z,43.67
2019-01-22T01:55:59.411Z,40.63
2019-01-22T01:58:28.877Z,43.37
2019-01-22T02:00:58.355Z,44.13
2019-01-22T02:03:27.850Z,46.23
2019-01-22T02:05:57.835Z,43.23
2019-01-22T02:08:27.337Z,47.47
2019-01-22T02:10:56.854Z,40.17
2019-01-22T02:13:30.986Z,40.57
2019-01-22T02:16:31.540Z,42.23
2019-01-22T02:19:25.405Z,39.03
2019-01-22T02:22:22.405Z,39.90
2019-01-22T02:25:04.052Z,40.40
2019-01-22T02:28:11.883Z,37.97
2019-01-22T02:31:28.319Z,38.70
2019-01-22T02:34:47.841Z,36.40
2019-01-22T02:37:54.042Z,36.67
2019-01-22T02:41:09.546Z,39.87
2019-01-22T02:44:11.577Z,40.70
2019-01-22T02:47:15.431Z,39.27
2019-01-22T02:50:24.545Z,35.87
2019-01-22T02:53:11.603Z,41.60
2019-01-22T02:55:46.121Z,41.23
2019-01-22T02:59:00.855Z,36.00
2019-01-22T03:02:16.270Z,36.87
2019-01-22T03:05:39.145Z,39.40
2019-01-22T03:08:49.023Z,38.13
2019-01-22T03:11:50.834Z,40.30
2019-01-22T03:14:49.006Z,38.23
2019-01-22T03:17:44.887Z,41.40
2019-01-22T03:20:28.707Z,38.50
2019-01-22T03:23:34.371Z,38.23
2019-01-22T03:26:26.790Z,34.73
2019-01-22T03:29:27.217Z,37.57
2019-01-22T03:32:38.300Z,38.87
2019-01-22T03:35:56.661Z,44.97
2019-01-22T03:38:57.308Z,42.77
2019-01-22T03:42:02.884Z,38.97
2019-01-22T03:45:31.493Z,37.97
2019-01-22T03:48:42.206Z,39.33
2019-01-22T03:51:22.892Z,39.77
2019-01-22T03:54:24.669Z,42.70
2019-01-22T03:57:30.155Z,36.83
2019-01-22T03:59:59.643Z,38.93
2019-01-22T04:02:33.028Z,43.10
2019-01-22T04:05:02.627Z,44.47
2019-01-22T04:07:32.090Z,41.00
2019-01-22T04:10:33.710Z,41.90
2019-01-22T04:13:03.245Z,40.20
2019-01-22T04:15:37.523Z,39.47
2019-01-22T04:18:07.336Z,42.27
2019-01-22T04:20:37.886Z,42.43
2019-01-22T04:24:01.461Z,41.97
2019-01-22T04:26:46.796Z,40.83
2019-01-22T04:29:45.383Z,43.03
2019-01-22T04:32:22.802Z,41.37
2019-01-22T04:35:21.486Z,44.40
2019-01-22T04:38:11.582Z,41.23
2019-01-22T04:41:01.140Z,43.27
2019-01-22T04:43:56.642Z,39.87
2019-01-22T04:46:40.812Z,41.10
2019-01-22T04:50:12.210Z,44.70
2019-01-22T04:53:12.578Z,42.63
2019-01-22T04:56:10.969Z,44.40
2019-01-22T04:59:28.401Z,42.43
2019-01-22T05:02:23.173Z,48.77
2019-01-22T05:05:26.443Z,46.20
2019-01-22T05:08:43.192Z,44.40
2019-01-22T05:11:39.802Z,41.17
2019-01-22T05:15:05.470Z,40.07
2019-01-22T05:18:15.033Z,41.97
2019-01-22T05:21:46.859Z,43.40
2019-01-22T05:25:08.208Z,43.53
2019-01-22T05:28:00.384Z,41.33
2019-01-22T05:31:11.558Z,44.97
2019-01-22T05:34:21.195Z,44.07
2019-01-22T05:37:17.793Z,39.20
2019-01-22T05:40:24.070Z,45.43
2019-01-22T05:43:34.876Z,44.93
2019-01-22T05:46:15.958Z,40.37
2019-01-22T05:49:14.763Z,45.50
2019-01-22T05:52:10.900Z,39.17
2019-01-22T05:54:52.060Z,39.50
2019-01-22T05:58:23.768Z,43.30
2019-01-22T06:01:04.641Z,40.63
2019-01-22T06:04:01.839Z,42.87
2019-01-22T06:06:59.010Z,44.60
2019-01-22T06:10:13.371Z,40.90
2019-01-22T06:13:06.070Z,43.20
2019-01-22T06:16:11.703Z,45.50
2019-01-22T06:19:25.440Z,41.30
2019-01-22T06:21:58.987Z,45.13
2019-01-22T06:24:55.703Z,47.00
2019-01-22T06:27:35.170Z,43.97
2019-01-22T06:30:44.145Z,40.07
2019-01-22T06:33:53.185Z,41.67
2019-01-22T06:36:59.193Z,45.20
2019-01-22T06:39:58.967Z,47.83
2019-01-22T06:42:46.410Z,47.57
2019-01-22T06:45:41.786Z,44.17
2019-01-22T06:48:26.875Z,48.97
2019-01-22T06:51:58.729Z,50.20
2019-01-22T06:54:40.327Z,46.40
2019-01-22T06:57:39.939Z,44.47
2019-01-22T07:00:52.303Z,48.33
2019-01-22T07:03:47.715Z,43.97
2019-01-22T07:06:47.344Z,47.77
2019-01-22T07:10:06.827Z,45.37
2019-01-22T07:13:20.486Z,51.00
2019-01-22T07:16:07.579Z,45.73
2019-01-22T07:19:11.688Z,47.73
2019-01-22T07:22:04.057Z,51.30
2019-01-22T07:25:24.187Z,40.37
2019-01-22T07:28:39.289Z,47.27
2019-01-22T07:31:55.390Z,43.53
2019-01-22T07:35:09.204Z,44.53
2019-01-22T07:38:25.408Z,51.20
2019-01-22T07:41:06.737Z,47.27
2019-01-22T07:44:23.158Z,46.07
2019-01-22T07:47:22.533Z,44.97
2019-01-22T07:50:42.438Z,46.40
2019-01-22T07:53:42.113Z,45.10
2019-01-22T07:57:10.799Z,45.67
2019-01-22T08:00:05.981Z,44.20
2019-01-22T08:02:56.976Z,46.27
2019-01-22T08:06:18.975Z,43.87
2019-01-22T08:09:36.931Z,44.10
2019-01-22T08:12:44.602Z,45.57
2019-01-22T08:15:29.841Z,43.83
2019-01-22T08:18:40.728Z,41.53
2019-01-22T08:22:03.160Z,40.07
2019-01-22T08:25:00.841Z,41.50
2019-01-22T08:28:09.250Z,42.33
2019-01-22T08:31:22.714Z,43.80
2019-01-22T08:34:37.762Z,45.00
2019-01-22T08:37:54.285Z,42.73
2019-01-22T08:40:44.396Z,44.27
2019-01-22T08:43:40.494Z,38.27
2019-01-22T08:46:40.434Z,38.50
2019-01-22T08:49:36.494Z,40.03
2019-01-22T08:52:45.924Z,52.77
2019-01-22T08:55:40.522Z,53.80
2019-01-22T08:59:00.382Z,49.97
2019-01-22T09:01:53.446Z,39.70
2019-01-22T09:04:45.606Z,36.63
2019-01-22T09:07:59.242Z,37.73
2019-01-22T09:11:09.896Z,37.23
2019-01-22T09:14:04.047Z,40.10
2019-01-22T09:17:26.561Z,36.17
2019-01-22T09:20:17.322Z,36.63
2019-01-22T09:23:18.576Z,38.97
2019-01-22T09:26:22.020Z,38.23
2019-01-22T09:29:30.135Z,37.43
2019-01-22T09:32:44.421Z,34.70
2019-01-22T09:35:52.611Z,41.03
2019-01-22T09:38:22.546Z,35.10
2019-01-22T09:40:52.054Z,39.27
2019-01-22T09:43:21.654Z,37.40
2019-01-22T09:45:51.559Z,38.33
2019-01-22T09:48:21.030Z,37.37
2019-01-22T09:50:50.802Z,36.33
2019-01-22T09:53:20.292Z,39.33
2019-01-22T09:55:49.802Z,36.17
2019-01-22T09:58:19.289Z,33.33
2019-01-22T10:00:48.822Z,35.53
2019-01-22T10:03:18.339Z,37.47
2019-01-22T10:05:47.861Z,38.50
2019-01-22T10:08:17.361Z,34.40
2019-01-22T10:10:46.866Z,35.57
2019-01-22T10:13:16.534Z,33.97
2019-01-22T10:15:46.117Z,32.47
2019-01-22T10:18:15.640Z,35.40
2019-01-22T10:20:45.157Z,33.67
2019-01-22T10:23:14.631Z,34.50
2019-01-22T10:25:44.258Z,32.83
2019-01-22T10:28:13.772Z,35.10
2019-01-22T10:30:43.241Z,35.90
2019-01-22T10:33:12.854Z,34.53
2019-01-22T10:35:42.340Z,30.53
2019-01-22T10:38:11.850Z,33.07
2019-01-22T10:40:41.374Z,30.43
2019-01-22T10:43:10.911Z,32.70
2019-01-22T10:45:40.414Z,32.87
2019-01-22T10:48:09.886Z,32.33
2019-01-22T10:50:40.305Z,32.97
2019-01-22T10:53:09.805Z,43.93
2019-01-22T10:55:39.287Z,37.73
2019-01-22T10:58:08.991Z,33.20
2019-01-22T11:00:38.493Z,35.10
2019-01-22T11:03:08.897Z,33.10
2019-01-22T11:05:40.725Z,32.03
2019-01-22T11:08:10.242Z,32.23
2019-01-22T11:10:39.746Z,42.13
2019-01-22T11:13:09.269Z,35.73
2019-01-22T11:15:39.081Z,36.93
2019-01-22T11:18:08.705Z,38.63
2019-01-22T11:20:38.482Z,36.17
2019-01-22T11:23:08.532Z,33.07
2019-01-22T11:25:43.437Z,32.77
2019-01-22T11:28:09.399Z,35.63
2019-01-22T11:30:38.901Z,29.80
2019-01-22T11:33:08.415Z,40.57
2019-01-22T11:35:37.951Z,36.47
2019-01-22T11:38:12.513Z,34.93
2019-01-22T11:40:41.185Z,40.93
2019-01-22T11:43:10.675Z,35.30
2019-01-22T11:45:40.247Z,39.97
2019-01-22T11:48:11.243Z,35.07
2019-01-22T11:50:40.842Z,34.57
2019-01-22T11:53:10.352Z,36.50
2019-01-22T11:55:39.847Z,34.50
2019-01-22T11:58:09.384Z,35.90
2019-01-22T12:00:46.471Z,32.87
2019-01-22T12:03:15.940Z,33.20
2019-01-22T12:05:45.441Z,31.47
2019-01-22T12:08:14.929Z,32.33
2019-01-22T12:10:44.390Z,30.70
2019-01-22T12:13:13.910Z,32.57
2019-01-22T12:15:43.435Z,31.63
2019-01-22T12:18:13.179Z,30.93
2019-01-22T12:20:44.355Z,34.20
2019-01-22T12:23:14.089Z,31.90
2019-01-22T12:25:44.024Z,29.20
2019-01-22T12:28:13.886Z,32.53
2019-01-22T12:30:43.351Z,32.73
2019-01-22T12:33:12.866Z,31.37
2019-01-22T12:35:42.402Z,34.87
2019-01-22T12:38:11.920Z,32.73
2019-01-22T12:40:41.435Z,36.90
2019-01-22T12:43:11.438Z,98.93
2019-01-22T12:45:40.987Z,139.20
2019-01-22T12:48:11.032Z,99.57
2019-01-22T12:50:41.271Z,44.90
2019-01-22T12:53:12.356Z,35.40
2019-01-22T12:55:41.882Z,34.20
2019-01-22T12:58:11.419Z,32.83
2019-01-22T13:00:41.037Z,38.03
2019-01-22T13:03:10.655Z,37.50
2019-01-22T13:05:53.575Z,39.37
2019-01-22T13:08:23.048Z,33.53
2019-01-22T13:10:52.650Z,33.23
2019-01-22T13:13:22.224Z,36.73
2019-01-22T13:15:51.747Z,36.07
2019-01-22T13:18:21.230Z,34.00
2019-01-22T13:20:50.758Z,37.77
2019-01-22T13:23:20.337Z,37.83
2019-01-22T13:25:49.805Z,34.43
2019-01-22T13:28:19.337Z,34.87
2019-01-22T13:30:48.966Z,33.27
2019-01-22T13:33:18.607Z,34.23
2019-01-22T13:35:48.151Z,33.03
2019-01-22T13:38:17.630Z,35.53
2019-01-22T13:40:47.132Z,31.50
2019-01-22T13:43:16.735Z,40.03
2019-01-22T13:45:46.235Z,34.77
2019-01-22T13:48:19.706Z,36.87
2019-01-22T13:50:49.277Z,39.40
2019-01-22T13:53:18.802Z,35.90
2019-01-22T13:55:48.278Z,34.30
2019-01-22T13:58:17.769Z,32.67
2019-01-22T14:00:47.309Z,33.60
2019-01-22T14:03:16.818Z,35.07
2019-01-22T14:05:46.319Z,34.37
2019-01-22T14:08:15.817Z,32.63
2019-01-22T14:10:45.349Z,33.03
2019-01-22T14:13:14.853Z,33.80
2019-01-22T14:15:44.392Z,34.60
2019-01-22T14:18:14.595Z,33.73
2019-01-22T14:20:44.162Z,31.73
2019-01-22T14:23:13.657Z,35.73
2019-01-22T14:25:43.135Z,31.07
2019-01-22T14:28:12.622Z,33.80
2019-01-22T14:30:42.144Z,35.23
2019-01-22T14:33:11.621Z,38.30
2019-01-22T14:35:41.156Z,32.93
2019-01-22T14:38:10.644Z,30.10
2019-01-22T14:40:40.153Z,30.83
2019-01-22T14:43:09.629Z,33.03
2019-01-22T14:45:39.170Z,33.40
2019-01-22T14:48:08.642Z,31.03
2019-01-22T14:50:38.155Z,30.87
2019-01-22T14:53:07.656Z,32.07
2019-01-22T14:55:37.163Z,35.40
2019-01-22T14:58:06.669Z,33.20
2019-01-22T15:00:36.182Z,33.27
2019-01-22T15:03:06.077Z,31.50
2019-01-22T15:05:35.668Z,33.90
2019-01-22T15:08:05.196Z,31.93
2019-01-22T15:10:34.711Z,32.60
2019-01-22T15:13:04.520Z,32.53
2019-01-22T15:15:34.138Z,35.53
2019-01-22T15:18:03.701Z,38.37
2019-01-22T15:20:33.203Z,38.00
2019-01-22T15:23:02.700Z,38.57
2019-01-22T15:25:32.202Z,34.90
2019-01-22T15:28:01.682Z,35.03
2019-01-22T15:30:33.545Z,34.93
2019-01-22T15:33:03.043Z,35.83
2019-01-22T15:35:32.519Z,36.07
2019-01-22T15:38:01.986Z,32.77
2019-01-22T15:40:32.092Z,37.90
2019-01-22T15:43:01.611Z,37.53
2019-01-22T15:45:31.255Z,35.70
2019-01-22T15:48:01.493Z,37.13
2019-01-22T15:50:31.056Z,34.87
2019-01-22T15:53:00.559Z,34.83
2019-01-22T15:55:32.328Z,36.57
2019-01-22T15:58:01.827Z,35.60
2019-01-22T16:00:31.472Z,34.23
2019-01-22T16:03:00.995Z,36.87
2019-01-22T16:05:30.582Z,40.93
2019-01-22T16:08:00.114Z,39.97
2019-01-22T16:10:29.595Z,38.03
2019-01-22T16:12:59.144Z,40.40
2019-01-22T16:15:28.758Z,43.47
2019-01-22T16:17:58.293Z,56.50
2019-01-22T16:20:28.411Z,45.43
2019-01-22T16:22:57.870Z,41.13
2019-01-22T16:25:27.583Z,45.13
2019-01-22T16:27:57.442Z,41.57
2019-01-22T16:30:27.934Z,40.47
2019-01-22T16:32:57.466Z,39.73
2019-01-22T16:35:28.131Z,40.90
2019-01-22T16:37:57.597Z,40.03
2019-01-22T16:40:27.101Z,40.90
2019-01-22T16:42:56.626Z,42.13
2019-01-22T16:45:31.750Z,43.03
2019-01-22T16:48:01.343Z,37.30
2019-01-22T16:50:33.038Z,42.53
2019-01-22T16:53:04.283Z,43.33
2019-01-22T16:55:36.490Z,39.97
2019-01-22T16:58:06.122Z,41.23
2019-01-22T17:00:36.399Z,38.13
2019-01-22T17:03:06.769Z,38.27
2019-01-22T17:05:36.289Z,40.90
2019-01-22T17:08:05.916Z,42.13
2019-01-22T17:10:35.644Z,39.20
2019-01-22T17:13:06.103Z,44.03
2019-01-22T17:15:35.674Z,39.80
2019-01-22T17:18:06.521Z,50.43
2019-01-22T17:20:36.929Z,61.40
2019-01-22T17:23:06.432Z,97.57
2019-01-22T17:25:35.873Z,58.40
2019-01-22T17:28:05.878Z,62.20
2019-01-22T17:30:35.371Z,39.47
2019-01-22T17:33:26.995Z,42.63
2019-01-22T17:35:56.520Z,40.60
2019-01-22T17:38:26.062Z,37.90
2019-01-22T17:40:55.531Z,40.47
2019-01-22T17:43:25.061Z,40.83
2019-01-22T17:45:54.666Z,38.57
2019-01-22T17:48:24.171Z,36.37
2019-01-22T17:50:53.684Z,37.27
2019-01-22T17:53:23.204Z,38.83
2019-01-22T17:55:52.699Z,34.73
2019-01-22T17:58:22.213Z,35.87
2019-01-22T18:00:51.775Z,36.83
2019-01-22T18:03:21.317Z,36.83
2019-01-22T18:05:50.791Z,35.83
2019-01-22T18:08:19.660Z,36.87
2019-01-22T18:10:49.153Z,38.30
2019-01-22T18:13:18.667Z,36.13
2019-01-22T18:15:47.525Z,36.80
2019-01-22T18:18:17.049Z,37.03
2019-01-22T18:20:46.567Z,37.17
2019-01-22T18:23:16.079Z,39.13
2019-01-22T18:25:45.547Z,39.20
2019-01-22T18:28:15.056Z,39.57
2019-01-22T18:30:44.526Z,36.67
2019-01-22T18:33:14.013Z,37.23
2019-01-22T18:35:46.426Z,37.07
2019-01-22T18:38:17.426Z,40.07
2019-01-22T18:40:46.971Z,38.23
2019-01-22T18:43:16.470Z,39.27
2019-01-22T18:45:45.952Z,35.57
2019-01-22T18:48:15.551Z,39.87
2019-01-22T18:50:45.087Z,36.23
2019-01-22T18:53:14.623Z,39.60
2019-01-22T18:55:44.254Z,37.90
2019-01-22T18:58:13.949Z,35.03
2019-01-22T19:00:43.407Z,36.93
2019-01-22T19:03:12.975Z,42.53
2019-01-22T19:05:42.445Z,36.93
2019-01-22T19:08:11.931Z,40.57
2019-01-22T19:10:41.460Z,37.70
2019-01-22T19:13:11.000Z,39.03
2019-01-22T19:15:40.799Z,38.47
2019-01-22T19:18:10.291Z,36.53
2019-01-22T19:20:39.786Z,39.37
2019-01-22T19:23:09.286Z,38.13
2019-01-22T19:25:38.768Z,37.30
2019-01-22T19:28:08.270Z,36.13
2019-01-22T19:30:37.885Z,37.37
2019-01-22T19:33:07.411Z,34.57
2019-01-22T19:35:36.897Z,36.07
2019-01-22T19:38:06.415Z,37.50
2019-01-22T19:40:35.907Z,37.57
2019-01-22T19:43:05.548Z,35.43
2019-01-22T19:45:36.558Z,36.27
2019-01-22T19:48:06.219Z,36.27
2019-01-22T19:50:35.742Z,36.33
2019-01-22T19:53:05.550Z,36.73
2019-01-22T19:55:35.170Z,34.47
2019-01-22T19:58:04.949Z,34.07
2019-01-22T20:00:39.450Z,34.43
2019-01-22T20:03:09.783Z,35.43
2019-01-22T20:05:39.429Z,36.63
2019-01-22T20:08:09.875Z,38.50
2019-01-22T20:10:39.377Z,35.70
2019-01-22T20:13:13.088Z,37.20
2019-01-22T20:15:42.606Z,37.17
2019-01-22T20:18:12.126Z,37.70
2019-01-22T20:20:41.647Z,37.13
2019-01-22T20:23:11.190Z,36.07
2019-01-22T20:25:40.668Z,38.47
2019-01-22T20:28:11.082Z,36.30
2019-01-22T20:30:41.260Z,37.70
2019-01-22T20:33:10.751Z,38.20
2019-01-22T20:35:40.266Z,38.73
2019-01-22T20:38:09.746Z,37.73
2019-01-22T20:40:39.424Z,32.37
2019-01-22T20:43:08.871Z,35.33
2019-01-22T20:45:38.355Z,35.63
2019-01-22T20:48:07.854Z,39.03
2019-01-22T20:50:37.366Z,34.80
2019-01-22T20:53:06.863Z,32.90
2019-01-22T20:55:36.474Z,37.83
2019-01-22T20:58:06.038Z,32.50
2019-01-22T21:00:35.517Z,37.57
2019-01-22T21:03:05.050Z,35.63
2019-01-22T21:05:34.546Z,32.50
2019-01-22T21:08:04.218Z,34.63
2019-01-22T21:10:34.928Z,35.53
2019-01-22T21:13:04.980Z,33.37
2019-01-22T21:15:34.455Z,34.50
2019-01-22T21:18:04.015Z,35.47
2019-01-22T21:20:33.490Z,34.87
2019-01-22T21:23:03.061Z,35.10
2019-01-22T21:25:32.773Z,32.37
2019-01-22T21:28:02.295Z,35.60
2019-01-22T21:30:33.770Z,34.13
2019-01-22T21:33:03.936Z,38.90
2019-01-22T21:35:33.468Z,35.60
2019-01-22T21:38:02.979Z,34.83
2019-01-22T21:40:32.480Z,34.93
2019-01-22T21:43:02.048Z,37.20
2019-01-22T21:45:31.554Z,36.93
2019-01-22T21:48:01.093Z,33.53
2019-01-22T21:50:30.608Z,35.80
2019-01-22T21:53:00.139Z,38.33
2019-01-22T21:55:29.695Z,35.07
2019-01-22T21:57:59.185Z,38.17
2019-01-22T22:00:29.179Z,36.00
2019-01-22T22:02:58.751Z,35.93
2019-01-22T22:05:29.749Z,32.97
2019-01-22T22:07:59.268Z,35.00
2019-01-22T22:10:28.790Z,36.83
2019-01-22T22:12:58.309Z,35.00
2019-01-22T22:15:27.883Z,34.23
2019-01-22T22:17:57.370Z,36.97
2019-01-22T22:20:26.985Z,32.00
2019-01-22T22:22:56.507Z,34.00
2019-01-22T22:25:26.114Z,33.33
2019-01-22T22:27:55.597Z,33.77
2019-01-22T22:30:27.686Z,37.30
2019-01-22T22:32:58.639Z,35.73
2019-01-22T22:35:28.487Z,33.90
2019-01-22T22:37:59.275Z,34.40
2019-01-22T22:40:29.075Z,34.23
2019-01-22T22:42:58.551Z,35.50
2019-01-22T22:45:28.069Z,33.43
2019-01-22T22:47:57.632Z,38.27
2019-01-22T22:50:29.371Z,35.77
2019-01-22T22:52:58.844Z,32.73
2019-01-22T22:55:28.400Z,31.90
2019-01-22T22:57:57.905Z,32.63
2019-01-22T23:00:54.055Z,35.40
2019-01-22T23:03:23.648Z,35.93
2019-01-22T23:05:52.531Z,33.47
2019-01-22T23:08:22.012Z,35.23
2019-01-22T23:10:51.557Z,36.73
2019-01-22T23:13:21.166Z,35.03
2019-01-22T23:15:50.876Z,33.67
2019-01-22T23:18:20.359Z,33.20
2019-01-22T23:20:49.846Z,38.10
2019-01-22T23:23:19.336Z,32.97
2019-01-22T23:25:48.861Z,35.73
2019-01-22T23:28:18.477Z,32.73
2019-01-22T23:30:48.006Z,34.97
2019-01-22T23:33:17.492Z,32.83
2019-01-22T23:35:47.162Z,33.33
2019-01-22T23:38:16.654Z,34.30
2019-01-22T23:40:46.200Z,32.63
2019-01-22T23:43:15.698Z,36.10
2019-01-22T23:45:45.243Z,35.90
2019-01-22T23:48:14.700Z,31.83
2019-01-22T23:50:44.250Z,34.87
2019-01-22T23:53:13.793Z,39.67
2019-01-22T23:55:43.238Z,35.13
2019-01-22T23:58:12.775Z,34.57
